sensor_id;sensor_type;location;lat;lon;timestamp;pressure;altitude;pressure_sealevel;temperature;humidity
62655;BME280;48717;55.556;37.816;2023-02-28T00:00:44;99921.69;;;-8.17;91.63
62655;BME280;48717;55.556;37.816;2023-02-28T00:03:12;99895.72;;;-8.33;91.31
62655;BME280;48717;55.556;37.816;2023-02-28T00:05:39;99905.53;;;-8.28;92.33
62655;BME280;48717;55.556;37.816;2023-02-28T00:08:06;99888.81;;;-8.34;92.54
62655;BME280;48717;55.556;37.816;2023-02-28T00:10:33;99905.16;;;-8.32;92.25
62655;BME280;48717;55.556;37.816;2023-02-28T00:13:03;99880.72;;;-8.41;92.63
62655;BME280;48717;55.556;37.816;2023-02-28T00:15:31;99831.34;;;-8.74;92.02
62655;BME280;48717;55.556;37.816;2023-02-28T00:17:58;99880.56;;;-8.54;93.10
62655;BME280;48717;55.556;37.816;2023-02-28T00:20:25;99882.53;;;-8.50;92.61
62655;BME280;48717;55.556;37.816;2023-02-28T00:22:53;99891.22;;;-8.48;93.19
62655;BME280;48717;55.556;37.816;2023-02-28T00:25:23;99885.66;;;-8.54;93.04
62655;BME280;48717;55.556;37.816;2023-02-28T00:27:51;99879.19;;;-8.61;92.30
62655;BME280;48717;55.556;37.816;2023-02-28T00:30:20;99865.59;;;-8.72;92.05
62655;BME280;48717;55.556;37.816;2023-02-28T00:32:48;99870.47;;;-8.75;92.79
62655;BME280;48717;55.556;37.816;2023-02-28T00:35:16;99886.81;;;-8.73;92.82
62655;BME280;48717;55.556;37.816;2023-02-28T00:37:44;99882.59;;;-8.72;92.85
62655;BME280;48717;55.556;37.816;2023-02-28T00:40:11;99876.66;;;-8.83;92.05
62655;BME280;48717;55.556;37.816;2023-02-28T00:42:39;99839.22;;;-9.05;92.13
62655;BME280;48717;55.556;37.816;2023-02-28T00:45:07;99866.19;;;-8.86;91.91
62655;BME280;48717;55.556;37.816;2023-02-28T00:47:37;99864.19;;;-8.91;92.70
62655;BME280;48717;55.556;37.816;2023-02-28T00:50:06;99835.91;;;-9.04;92.65
62655;BME280;48717;55.556;37.816;2023-02-28T00:52:33;99861.16;;;-8.97;92.60
62655;BME280;48717;55.556;37.816;2023-02-28T00:55:00;99871.13;;;-9.00;92.07
62655;BME280;48717;55.556;37.816;2023-02-28T00:57:28;99827.59;;;-9.24;92.33
62655;BME280;48717;55.556;37.816;2023-02-28T00:59:56;99849.31;;;-9.07;92.28
62655;BME280;48717;55.556;37.816;2023-02-28T01:02:23;99827.34;;;-9.27;92.51
62655;BME280;48717;55.556;37.816;2023-02-28T01:04:52;99837.16;;;-9.21;92.64
62655;BME280;48717;55.556;37.816;2023-02-28T01:07:19;99818.19;;;-9.35;92.80
62655;BME280;48717;55.556;37.816;2023-02-28T01:09:46;99829.13;;;-9.26;93.00
62655;BME280;48717;55.556;37.816;2023-02-28T01:12:13;99839.56;;;-9.23;93.30
62655;BME280;48717;55.556;37.816;2023-02-28T01:14:40;99842.66;;;-9.27;93.26
62655;BME280;48717;55.556;37.816;2023-02-28T01:17:08;99838.22;;;-9.29;93.18
62655;BME280;48717;55.556;37.816;2023-02-28T01:19:35;99800.00;;;-9.50;93.37
62655;BME280;48717;55.556;37.816;2023-02-28T01:22:03;99826.38;;;-9.39;93.18
62655;BME280;48717;55.556;37.816;2023-02-28T01:24:31;99822.81;;;-9.41;93.35
62655;BME280;48717;55.556;37.816;2023-02-28T01:27:00;99820.78;;;-9.46;93.63
62655;BME280;48717;55.556;37.816;2023-02-28T01:29:27;99828.31;;;-9.47;93.83
62655;BME280;48717;55.556;37.816;2023-02-28T01:31:54;99799.41;;;-9.58;93.48
62655;BME280;48717;55.556;37.816;2023-02-28T01:34:21;99823.63;;;-9.53;93.69
62655;BME280;48717;55.556;37.816;2023-02-28T01:36:50;99809.88;;;-9.55;93.84
62655;BME280;48717;55.556;37.816;2023-02-28T01:39:18;99806.78;;;-9.51;93.63
62655;BME280;48717;55.556;37.816;2023-02-28T01:41:45;99797.75;;;-9.58;93.43
62655;BME280;48717;55.556;37.816;2023-02-28T01:47:18;99799.16;;;-9.61;93.98
62655;BME280;48717;55.556;37.816;2023-02-28T01:49:45;99785.53;;;-9.72;94.01
62655;BME280;48717;55.556;37.816;2023-02-28T01:52:13;99795.06;;;-9.59;93.97
62655;BME280;48717;55.556;37.816;2023-02-28T01:54:48;99772.91;;;-9.71;94.28
62655;BME280;48717;55.556;37.816;2023-02-28T01:57:20;99774.28;;;-9.64;93.90
62655;BME280;48717;55.556;37.816;2023-02-28T01:59:52;99786.63;;;-9.58;93.85
62655;BME280;48717;55.556;37.816;2023-02-28T02:02:22;99749.81;;;-9.72;93.96
62655;BME280;48717;55.556;37.816;2023-02-28T02:04:57;99766.75;;;-9.62;94.00
62655;BME280;48717;55.556;37.816;2023-02-28T02:07:26;99768.50;;;-9.61;94.30
62655;BME280;48717;55.556;37.816;2023-02-28T02:10:02;99753.19;;;-9.61;94.22
62655;BME280;48717;55.556;37.816;2023-02-28T02:15:44;99748.41;;;-9.68;94.23
62655;BME280;48717;55.556;37.816;2023-02-28T02:32:10;99731.66;;;-9.65;94.75
62655;BME280;48717;55.556;37.816;2023-02-28T02:37:38;99729.47;;;-9.60;94.53
62655;BME280;48717;55.556;37.816;2023-02-28T02:40:14;99724.38;;;-9.60;94.83
62655;BME280;48717;55.556;37.816;2023-02-28T02:47:42;99711.66;;;-9.71;94.58
62655;BME280;48717;55.556;37.816;2023-02-28T02:50:26;99694.81;;;-9.68;94.63
62655;BME280;48717;55.556;37.816;2023-02-28T02:53:00;99696.59;;;-9.67;94.34
62655;BME280;48717;55.556;37.816;2023-02-28T02:55:31;99718.16;;;-9.52;94.44
62655;BME280;48717;55.556;37.816;2023-02-28T02:58:04;99724.19;;;-9.51;94.53
62655;BME280;48717;55.556;37.816;2023-02-28T03:00:37;99708.63;;;-9.54;93.89
62655;BME280;48717;55.556;37.816;2023-02-28T03:03:07;99703.75;;;-9.51;94.28
62655;BME280;48717;55.556;37.816;2023-02-28T03:05:50;99683.75;;;-9.57;94.56
62655;BME280;48717;55.556;37.816;2023-02-28T03:08:20;99691.44;;;-9.45;93.91
62655;BME280;48717;55.556;37.816;2023-02-28T03:10:52;99689.00;;;-9.44;94.43
62655;BME280;48717;55.556;37.816;2023-02-28T03:27:48;99661.72;;;-9.45;93.74
62655;BME280;48717;55.556;37.816;2023-02-28T03:30:31;99633.22;;;-9.61;93.74
62655;BME280;48717;55.556;37.816;2023-02-28T03:33:05;99655.69;;;-9.45;93.36
62655;BME280;48717;55.556;37.816;2023-02-28T03:35:38;99638.03;;;-9.54;93.34
62655;BME280;48717;55.556;37.816;2023-02-28T03:38:30;99619.13;;;-9.56;93.30
62655;BME280;48717;55.556;37.816;2023-02-28T03:41:05;99600.38;;;-9.68;93.00
62655;BME280;48717;55.556;37.816;2023-02-28T03:43:38;99618.69;;;-9.62;93.33
62655;BME280;48717;55.556;37.816;2023-02-28T03:46:10;99571.91;;;-9.85;93.31
62655;BME280;48717;55.556;37.816;2023-02-28T03:48:45;99611.41;;;-9.58;93.49
62655;BME280;48717;55.556;37.816;2023-02-28T03:51:18;99607.16;;;-9.57;93.57
62655;BME280;48717;55.556;37.816;2023-02-28T03:53:52;99599.06;;;-9.63;93.31
62655;BME280;48717;55.556;37.816;2023-02-28T04:01:52;99594.94;;;-9.61;93.24
62655;BME280;48717;55.556;37.816;2023-02-28T04:04:19;99591.63;;;-9.60;93.15
62655;BME280;48717;55.556;37.816;2023-02-28T04:06:50;99586.03;;;-9.66;92.95
62655;BME280;48717;55.556;37.816;2023-02-28T04:09:17;99562.94;;;-9.80;93.27
62655;BME280;48717;55.556;37.816;2023-02-28T04:11:51;99528.94;;;-9.91;93.16
62655;BME280;48717;55.556;37.816;2023-02-28T04:14:19;99557.19;;;-9.65;93.14
62655;BME280;48717;55.556;37.816;2023-02-28T04:16:46;99545.19;;;-9.78;93.40
62655;BME280;48717;55.556;37.816;2023-02-28T04:19:14;99580.94;;;-9.66;93.11
62655;BME280;48717;55.556;37.816;2023-02-28T04:21:43;99574.84;;;-9.68;92.91
62655;BME280;48717;55.556;37.816;2023-02-28T04:24:13;99556.50;;;-9.75;92.88
62655;BME280;48717;55.556;37.816;2023-02-28T04:26:45;99563.84;;;-9.67;92.84
62655;BME280;48717;55.556;37.816;2023-02-28T04:29:14;99554.63;;;-9.65;92.49
62655;BME280;48717;55.556;37.816;2023-02-28T04:31:41;99529.63;;;-9.81;92.61
62655;BME280;48717;55.556;37.816;2023-02-28T04:34:08;99534.75;;;-9.70;92.25
62655;BME280;48717;55.556;37.816;2023-02-28T04:36:36;99520.56;;;-9.78;92.11
62655;BME280;48717;55.556;37.816;2023-02-28T04:39:03;99546.56;;;-9.60;91.88
62655;BME280;48717;55.556;37.816;2023-02-28T04:41:30;99551.78;;;-9.58;91.58
62655;BME280;48717;55.556;37.816;2023-02-28T04:43:58;99542.81;;;-9.53;91.03
62655;BME280;48717;55.556;37.816;2023-02-28T04:46:26;99537.63;;;-9.42;90.97
62655;BME280;48717;55.556;37.816;2023-02-28T04:48:53;99544.50;;;-9.41;90.28
62655;BME280;48717;55.556;37.816;2023-02-28T04:51:21;99499.53;;;-9.39;89.25
62655;BME280;48717;55.556;37.816;2023-02-28T04:53:48;99495.44;;;-9.37;89.09
62655;BME280;48717;55.556;37.816;2023-02-28T04:56:16;99524.31;;;-9.14;88.17
62655;BME280;48717;55.556;37.816;2023-02-28T04:58:44;99505.31;;;-9.06;87.58
62655;BME280;48717;55.556;37.816;2023-02-28T05:01:24;99502.97;;;-9.03;87.43
62655;BME280;48717;55.556;37.816;2023-02-28T05:03:53;99498.44;;;-9.07;86.50
62655;BME280;48717;55.556;37.816;2023-02-28T05:06:23;99502.09;;;-9.15;86.35
62655;BME280;48717;55.556;37.816;2023-02-28T05:08:51;99485.53;;;-9.21;86.23
62655;BME280;48717;55.556;37.816;2023-02-28T05:11:20;99477.53;;;-9.13;86.02
62655;BME280;48717;55.556;37.816;2023-02-28T05:13:48;99490.31;;;-9.13;85.93
62655;BME280;48717;55.556;37.816;2023-02-28T05:16:16;99475.44;;;-9.19;86.67
62655;BME280;48717;55.556;37.816;2023-02-28T05:18:43;99464.25;;;-9.33;86.56
62655;BME280;48717;55.556;37.816;2023-02-28T05:23:58;99468.66;;;-9.07;85.20
62655;BME280;48717;55.556;37.816;2023-02-28T05:26:26;99463.88;;;-9.02;85.35
62655;BME280;48717;55.556;37.816;2023-02-28T05:28:55;99445.66;;;-9.07;84.79
62655;BME280;48717;55.556;37.816;2023-02-28T05:31:22;99447.44;;;-8.94;84.80
62655;BME280;48717;55.556;37.816;2023-02-28T05:33:50;99384.94;;;-9.23;83.25
62655;BME280;48717;55.556;37.816;2023-02-28T05:36:18;99420.31;;;-8.92;82.70
62655;BME280;48717;55.556;37.816;2023-02-28T05:38:47;99407.81;;;-8.75;81.77
62655;BME280;48717;55.556;37.816;2023-02-28T05:41:15;99413.56;;;-8.66;82.35
62655;BME280;48717;55.556;37.816;2023-02-28T05:43:42;99398.06;;;-8.55;80.78
62655;BME280;48717;55.556;37.816;2023-02-28T05:46:10;99400.25;;;-8.48;80.47
62655;BME280;48717;55.556;37.816;2023-02-28T05:48:39;99374.66;;;-8.48;79.07
62655;BME280;48717;55.556;37.816;2023-02-28T05:51:10;99387.22;;;-8.26;78.90
62655;BME280;48717;55.556;37.816;2023-02-28T05:53:37;99376.72;;;-8.17;77.86
62655;BME280;48717;55.556;37.816;2023-02-28T05:56:04;99382.34;;;-7.95;76.69
62655;BME280;48717;55.556;37.816;2023-02-28T05:58:32;99373.50;;;-7.87;75.88
62655;BME280;48717;55.556;37.816;2023-02-28T06:01:41;99368.88;;;-7.79;75.60
62655;BME280;48717;55.556;37.816;2023-02-28T06:04:11;99345.09;;;-7.65;74.17
62655;BME280;48717;55.556;37.816;2023-02-28T06:06:57;99341.84;;;-7.62;73.85
62655;BME280;48717;55.556;37.816;2023-02-28T06:09:24;99334.41;;;-7.44;72.64
62655;BME280;48717;55.556;37.816;2023-02-28T06:11:51;99337.84;;;-7.30;72.45
62655;BME280;48717;55.556;37.816;2023-02-28T06:14:19;99338.50;;;-7.19;71.38
62655;BME280;48717;55.556;37.816;2023-02-28T06:16:47;99336.72;;;-7.06;71.34
62655;BME280;48717;55.556;37.816;2023-02-28T06:19:14;99332.16;;;-6.97;69.67
62655;BME280;48717;55.556;37.816;2023-02-28T06:21:42;99348.66;;;-6.78;69.64
62655;BME280;48717;55.556;37.816;2023-02-28T06:24:09;99333.06;;;-6.82;68.31
62655;BME280;48717;55.556;37.816;2023-02-28T06:26:37;99324.59;;;-6.80;68.90
62655;BME280;48717;55.556;37.816;2023-02-28T06:29:04;99288.09;;;-6.76;67.85
62655;BME280;48717;55.556;37.816;2023-02-28T06:31:31;99305.09;;;-6.48;66.67
62655;BME280;48717;55.556;37.816;2023-02-28T06:33:59;99299.44;;;-6.58;66.47
62655;BME280;48717;55.556;37.816;2023-02-28T06:36:30;99300.69;;;-6.51;66.38
62655;BME280;48717;55.556;37.816;2023-02-28T06:38:57;99264.41;;;-6.57;66.19
62655;BME280;48717;55.556;37.816;2023-02-28T06:41:26;99273.09;;;-6.25;65.97
62655;BME280;48717;55.556;37.816;2023-02-28T06:43:58;99282.81;;;-6.19;65.14
62655;BME280;48717;55.556;37.816;2023-02-28T06:46:34;99289.31;;;-5.94;64.52
62655;BME280;48717;55.556;37.816;2023-02-28T06:49:02;99259.94;;;-5.99;63.95
62655;BME280;48717;55.556;37.816;2023-02-28T06:51:36;99265.75;;;-5.87;63.52
62655;BME280;48717;55.556;37.816;2023-02-28T06:54:08;99250.84;;;-5.78;62.76
62655;BME280;48717;55.556;37.816;2023-02-28T06:56:37;99246.25;;;-5.52;61.78
62655;BME280;48717;55.556;37.816;2023-02-28T06:59:04;99249.56;;;-5.38;61.08
62655;BME280;48717;55.556;37.816;2023-02-28T07:01:32;99265.91;;;-5.20;61.11
62655;BME280;48717;55.556;37.816;2023-02-28T07:04:00;99260.13;;;-5.16;61.46
62655;BME280;48717;55.556;37.816;2023-02-28T07:06:27;99236.25;;;-5.14;60.86
62655;BME280;48717;55.556;37.816;2023-02-28T07:09:00;99210.94;;;-5.22;60.46
62655;BME280;48717;55.556;37.816;2023-02-28T07:11:34;99197.38;;;-5.37;60.84
62655;BME280;48717;55.556;37.816;2023-02-28T07:14:04;99214.78;;;-5.14;61.27
62655;BME280;48717;55.556;37.816;2023-02-28T07:16:31;99222.84;;;-5.08;60.76
62655;BME280;48717;55.556;37.816;2023-02-28T07:18:58;99198.06;;;-5.06;60.23
62655;BME280;48717;55.556;37.816;2023-02-28T07:21:25;99185.53;;;-5.00;59.48
62655;BME280;48717;55.556;37.816;2023-02-28T07:23:53;99201.94;;;-4.98;59.98
62655;BME280;48717;55.556;37.816;2023-02-28T07:26:20;99146.09;;;-5.17;60.41
62655;BME280;48717;55.556;37.816;2023-02-28T07:28:48;99175.31;;;-4.98;59.86
62655;BME280;48717;55.556;37.816;2023-02-28T07:31:18;99184.41;;;-5.05;60.17
62655;BME280;48717;55.556;37.816;2023-02-28T07:33:48;99143.81;;;-5.29;62.06
62655;BME280;48717;55.556;37.816;2023-02-28T07:36:31;99165.59;;;-5.04;61.43
62655;BME280;48717;55.556;37.816;2023-02-28T07:39:07;99117.44;;;-5.25;61.47
62655;BME280;48717;55.556;37.816;2023-02-28T07:44:50;99147.56;;;-4.87;61.69
62655;BME280;48717;55.556;37.816;2023-02-28T07:47:41;99075.97;;;-5.14;63.55
62655;BME280;48717;55.556;37.816;2023-02-28T08:03:43;99121.97;;;-3.93;63.70
62655;BME280;48717;55.556;37.816;2023-02-28T08:06:20;99103.75;;;-3.78;64.19
62655;BME280;48717;55.556;37.816;2023-02-28T08:08:48;99083.53;;;-3.88;62.83
62655;BME280;48717;55.556;37.816;2023-02-28T08:11:22;99093.94;;;-3.67;63.18
62655;BME280;48717;55.556;37.816;2023-02-28T08:13:50;99116.94;;;-3.52;63.91
62655;BME280;48717;55.556;37.816;2023-02-28T08:16:20;99019.00;;;-4.11;64.01
62655;BME280;48717;55.556;37.816;2023-02-28T08:18:55;99086.78;;;-3.33;62.68
62655;BME280;48717;55.556;37.816;2023-02-28T08:21:24;99099.41;;;-3.39;61.94
62655;BME280;48717;55.556;37.816;2023-02-28T08:23:51;99064.47;;;-3.33;62.25
62655;BME280;48717;55.556;37.816;2023-02-28T08:26:20;99087.63;;;-2.92;62.28
62655;BME280;48717;55.556;37.816;2023-02-28T08:28:54;99078.19;;;-2.70;60.58
62655;BME280;48717;55.556;37.816;2023-02-28T08:31:29;99063.78;;;-2.65;61.06
62655;BME280;48717;55.556;37.816;2023-02-28T08:34:06;99026.00;;;-2.85;60.67
62655;BME280;48717;55.556;37.816;2023-02-28T08:36:33;99060.97;;;-2.48;60.56
62655;BME280;48717;55.556;37.816;2023-02-28T08:39:00;99054.13;;;-2.69;61.27
62655;BME280;48717;55.556;37.816;2023-02-28T08:41:28;99052.81;;;-3.03;62.08
62655;BME280;48717;55.556;37.816;2023-02-28T08:43:56;99068.97;;;-3.07;63.37
62655;BME280;48717;55.556;37.816;2023-02-28T08:46:30;99037.53;;;-3.39;64.56
62655;BME280;48717;55.556;37.816;2023-02-28T08:48:58;98976.03;;;-3.73;64.69
62655;BME280;48717;55.556;37.816;2023-02-28T08:51:35;99039.41;;;-3.35;65.29
62655;BME280;48717;55.556;37.816;2023-02-28T08:54:04;99018.78;;;-3.35;65.54
62655;BME280;48717;55.556;37.816;2023-02-28T08:56:32;99019.75;;;-3.33;66.05
62655;BME280;48717;55.556;37.816;2023-02-28T08:59:01;98986.72;;;-3.42;64.89
62655;BME280;48717;55.556;37.816;2023-02-28T09:01:30;99020.97;;;-3.25;65.84
62655;BME280;48717;55.556;37.816;2023-02-28T09:04:01;99022.81;;;-3.42;65.27
62655;BME280;48717;55.556;37.816;2023-02-28T09:20:16;99017.31;;;-3.30;68.33
62655;BME280;48717;55.556;37.816;2023-02-28T09:22:43;99033.03;;;-3.24;68.77
62655;BME280;48717;55.556;37.816;2023-02-28T09:25:10;99063.97;;;-3.24;69.58
62655;BME280;48717;55.556;37.816;2023-02-28T09:27:38;99037.81;;;-3.33;70.96
62655;BME280;48717;55.556;37.816;2023-02-28T09:30:07;99000.50;;;-3.42;71.12
62655;BME280;48717;55.556;37.816;2023-02-28T09:32:35;98978.16;;;-3.62;71.56
62655;BME280;48717;55.556;37.816;2023-02-28T09:35:02;98992.94;;;-3.58;70.99
62655;BME280;48717;55.556;37.816;2023-02-28T09:37:29;98946.59;;;-3.78;72.36
62655;BME280;48717;55.556;37.816;2023-02-28T09:39:57;98970.25;;;-3.67;71.53
62655;BME280;48717;55.556;37.816;2023-02-28T09:42:31;98984.97;;;-3.64;73.01
62655;BME280;48717;55.556;37.816;2023-02-28T09:45:21;98987.09;;;-3.54;73.67
62655;BME280;48717;55.556;37.816;2023-02-28T09:47:55;98975.03;;;-3.55;73.63
62655;BME280;48717;55.556;37.816;2023-02-28T09:51:05;98995.03;;;-3.49;75.46
62655;BME280;48717;55.556;37.816;2023-02-28T09:53:34;98935.91;;;-3.87;74.44
62655;BME280;48717;55.556;37.816;2023-02-28T09:56:09;99004.66;;;-3.45;75.12
62655;BME280;48717;55.556;37.816;2023-02-28T09:58:46;98966.47;;;-3.54;74.84
62655;BME280;48717;55.556;37.816;2023-02-28T10:04:47;99001.66;;;-3.35;75.14
62655;BME280;48717;55.556;37.816;2023-02-28T10:10:32;98965.63;;;-3.33;75.62
62655;BME280;48717;55.556;37.816;2023-02-28T10:13:26;98943.72;;;-3.22;75.53
62655;BME280;48717;55.556;37.816;2023-02-28T10:16:15;98955.41;;;-3.09;74.56
62655;BME280;48717;55.556;37.816;2023-02-28T10:22:03;98899.00;;;-3.22;72.96
62655;BME280;48717;55.556;37.816;2023-02-28T10:24:40;98943.06;;;-2.95;73.55
62655;BME280;48717;55.556;37.816;2023-02-28T10:27:23;98927.22;;;-3.04;73.82
62655;BME280;48717;55.556;37.816;2023-02-28T10:30:00;98904.09;;;-3.24;73.61
62655;BME280;48717;55.556;37.816;2023-02-28T10:32:35;98899.41;;;-3.34;74.03
62655;BME280;48717;55.556;37.816;2023-02-28T10:37:59;98891.91;;;-3.28;74.36
62655;BME280;48717;55.556;37.816;2023-02-28T10:40:40;98913.78;;;-3.18;74.58
62655;BME280;48717;55.556;37.816;2023-02-28T10:43:22;98911.72;;;-3.27;74.83
62655;BME280;48717;55.556;37.816;2023-02-28T10:45:57;98902.91;;;-3.32;75.21
62655;BME280;48717;55.556;37.816;2023-02-28T10:51:11;98895.19;;;-3.32;75.37
62655;BME280;48717;55.556;37.816;2023-02-28T10:53:51;98898.59;;;-3.33;75.66
62655;BME280;48717;55.556;37.816;2023-02-28T10:56:32;98892.97;;;-3.23;74.91
62655;BME280;48717;55.556;37.816;2023-02-28T10:59:29;98880.06;;;-3.23;75.11
62655;BME280;48717;55.556;37.816;2023-02-28T11:02:11;98912.53;;;-3.28;75.41
62655;BME280;48717;55.556;37.816;2023-02-28T11:04:52;98855.09;;;-3.47;75.27
62655;BME280;48717;55.556;37.816;2023-02-28T11:07:31;98862.22;;;-3.39;75.69
62655;BME280;48717;55.556;37.816;2023-02-28T11:10:20;98846.66;;;-3.43;75.28
62655;BME280;48717;55.556;37.816;2023-02-28T11:12:48;98886.25;;;-3.19;74.33
62655;BME280;48717;55.556;37.816;2023-02-28T11:15:23;98863.84;;;-3.20;75.44
62655;BME280;48717;55.556;37.816;2023-02-28T11:20:52;98852.53;;;-3.24;75.38
62655;BME280;48717;55.556;37.816;2023-02-28T11:23:29;98834.28;;;-3.29;75.65
62655;BME280;48717;55.556;37.816;2023-02-28T11:26:03;98859.69;;;-3.17;75.82
62655;BME280;48717;55.556;37.816;2023-02-28T11:28:35;98849.72;;;-3.07;75.31
62655;BME280;48717;55.556;37.816;2023-02-28T11:34:00;98801.25;;;-3.39;76.70
62655;BME280;48717;55.556;37.816;2023-02-28T11:36:30;98825.34;;;-3.16;77.59
62655;BME280;48717;55.556;37.816;2023-02-28T11:39:21;98839.22;;;-3.12;78.12
62655;BME280;48717;55.556;37.816;2023-02-28T11:56:39;98809.34;;;-3.30;79.04
62655;BME280;48717;55.556;37.816;2023-02-28T12:02:53;98819.63;;;-3.08;80.05
62655;BME280;48717;55.556;37.816;2023-02-28T12:17:12;98816.13;;;-3.09;80.54
62655;BME280;48717;55.556;37.816;2023-02-28T12:20:21;98802.34;;;-3.09;81.30
62655;BME280;48717;55.556;37.816;2023-02-28T12:26:11;98792.22;;;-3.05;81.05
62655;BME280;48717;55.556;37.816;2023-02-28T12:29:05;98772.81;;;-3.18;81.23
62655;BME280;48717;55.556;37.816;2023-02-28T12:32:04;98766.97;;;-3.13;81.65
62655;BME280;48717;55.556;37.816;2023-02-28T12:34:33;98791.78;;;-2.93;81.88
62655;BME280;48717;55.556;37.816;2023-02-28T12:37:10;98767.91;;;-3.11;82.63
62655;BME280;48717;55.556;37.816;2023-02-28T12:39:48;98755.44;;;-3.23;83.84
62655;BME280;48717;55.556;37.816;2023-02-28T12:45:04;98781.50;;;-3.16;85.35
62655;BME280;48717;55.556;37.816;2023-02-28T12:48:01;98750.94;;;-3.29;86.10
62655;BME280;48717;55.556;37.816;2023-02-28T12:50:39;98765.44;;;-3.08;86.09
62655;BME280;48717;55.556;37.816;2023-02-28T12:53:14;98737.72;;;-3.38;86.33
62655;BME280;48717;55.556;37.816;2023-02-28T12:55:50;98751.41;;;-3.17;86.29
62655;BME280;48717;55.556;37.816;2023-02-28T13:04:42;98738.75;;;-3.33;89.04
62655;BME280;48717;55.556;37.816;2023-02-28T13:19:09;98714.19;;;-3.23;90.93
62655;BME280;48717;55.556;37.816;2023-02-28T13:21:43;98699.50;;;-3.26;91.09
62655;BME280;48717;55.556;37.816;2023-02-28T13:24:11;98689.97;;;-3.27;90.04
62655;BME280;48717;55.556;37.816;2023-02-28T13:29:32;98714.28;;;-3.20;90.01
62655;BME280;48717;55.556;37.816;2023-02-28T13:37:36;98647.34;;;-3.66;89.81
62655;BME280;48717;55.556;37.816;2023-02-28T13:56:25;98673.78;;;-3.23;89.80
62655;BME280;48717;55.556;37.816;2023-02-28T14:04:43;98641.69;;;-3.31;90.28
62655;BME280;48717;55.556;37.816;2023-02-28T14:07:33;98668.56;;;-3.26;89.88
62655;BME280;48717;55.556;37.816;2023-02-28T14:16:39;98680.34;;;-3.08;90.44
62655;BME280;48717;55.556;37.816;2023-02-28T14:19:15;98670.75;;;-3.12;90.37
62655;BME280;48717;55.556;37.816;2023-02-28T14:27:49;98665.00;;;-3.04;90.38
62655;BME280;48717;55.556;37.816;2023-02-28T14:30:53;98672.94;;;-2.99;90.22
62655;BME280;48717;55.556;37.816;2023-02-28T14:34:00;98679.72;;;-3.01;90.71
62655;BME280;48717;55.556;37.816;2023-02-28T14:36:43;98644.59;;;-3.22;90.96
62655;BME280;48717;55.556;37.816;2023-02-28T14:39:20;98626.28;;;-3.30;90.87
62655;BME280;48717;55.556;37.816;2023-02-28T14:41:52;98644.31;;;-3.05;91.11
62655;BME280;48717;55.556;37.816;2023-02-28T14:44:22;98646.34;;;-2.96;91.79
62655;BME280;48717;55.556;37.816;2023-02-28T14:47:00;98642.13;;;-2.94;91.97
62655;BME280;48717;55.556;37.816;2023-02-28T14:49:42;98614.00;;;-3.12;91.55
62655;BME280;48717;55.556;37.816;2023-02-28T14:52:19;98626.56;;;-2.96;92.15
62655;BME280;48717;55.556;37.816;2023-02-28T14:55:05;98617.94;;;-2.98;92.48
62655;BME280;48717;55.556;37.816;2023-02-28T14:57:41;98633.50;;;-2.95;93.30
62655;BME280;48717;55.556;37.816;2023-02-28T15:00:30;98621.41;;;-2.96;94.52
62655;BME280;48717;55.556;37.816;2023-02-28T15:03:24;98628.34;;;-2.95;95.46
62655;BME280;48717;55.556;37.816;2023-02-28T15:06:01;98599.19;;;-3.18;96.00
62655;BME280;48717;55.556;37.816;2023-02-28T15:08:29;98626.50;;;-2.99;96.44
62655;BME280;48717;55.556;37.816;2023-02-28T15:11:05;98608.22;;;-3.05;97.43
62655;BME280;48717;55.556;37.816;2023-02-28T15:16:13;98617.94;;;-2.98;97.88
62655;BME280;48717;55.556;37.816;2023-02-28T15:19:01;98612.00;;;-2.95;98.83
62655;BME280;48717;55.556;37.816;2023-02-28T15:21:31;98617.97;;;-2.96;97.69
62655;BME280;48717;55.556;37.816;2023-02-28T15:26:33;98614.94;;;-2.84;97.82
62655;BME280;48717;55.556;37.816;2023-02-28T15:29:05;98607.91;;;-2.89;97.61
62655;BME280;48717;55.556;37.816;2023-02-28T15:32:01;98610.84;;;-2.78;96.52
62655;BME280;48717;55.556;37.816;2023-02-28T15:34:40;98601.31;;;-2.80;97.05
62655;BME280;48717;55.556;37.816;2023-02-28T15:40:17;98613.69;;;-2.70;95.70
62655;BME280;48717;55.556;37.816;2023-02-28T15:43:15;98614.63;;;-2.68;96.19
62655;BME280;48717;55.556;37.816;2023-02-28T15:45:55;98558.91;;;-2.89;96.29
62655;BME280;48717;55.556;37.816;2023-02-28T15:48:28;98603.59;;;-2.62;94.89
62655;BME280;48717;55.556;37.816;2023-02-28T15:51:23;98596.84;;;-2.58;95.37
62655;BME280;48717;55.556;37.816;2023-02-28T15:54:01;98574.84;;;-2.73;95.53
62655;BME280;48717;55.556;37.816;2023-02-28T15:56:42;98596.16;;;-2.53;95.28
62655;BME280;48717;55.556;37.816;2023-02-28T15:59:28;98602.19;;;-2.52;94.73
62655;BME280;48717;55.556;37.816;2023-02-28T16:02:16;98605.66;;;-2.52;95.33
62655;BME280;48717;55.556;37.816;2023-02-28T16:05:24;98575.59;;;-2.50;95.47
62655;BME280;48717;55.556;37.816;2023-02-28T16:08:14;98582.50;;;-2.49;94.92
62655;BME280;48717;55.556;37.816;2023-02-28T16:10:44;98571.03;;;-2.58;95.38
62655;BME280;48717;55.556;37.816;2023-02-28T16:13:12;98581.03;;;-2.40;95.13
62655;BME280;48717;55.556;37.816;2023-02-28T16:15:42;98580.25;;;-2.38;94.99
62655;BME280;48717;55.556;37.816;2023-02-28T16:18:12;98532.28;;;-2.60;94.18
62655;BME280;48717;55.556;37.816;2023-02-28T16:20:40;98568.91;;;-2.43;94.60
62655;BME280;48717;55.556;37.816;2023-02-28T16:23:08;98577.03;;;-2.30;94.96
62655;BME280;48717;55.556;37.816;2023-02-28T16:25:43;98581.38;;;-2.29;94.37
62655;BME280;48717;55.556;37.816;2023-02-28T16:28:34;98549.19;;;-2.41;94.67
62655;BME280;48717;55.556;37.816;2023-02-28T16:31:05;98573.72;;;-2.26;95.04
62655;BME280;48717;55.556;37.816;2023-02-28T16:33:38;98574.50;;;-2.29;94.38
62655;BME280;48717;55.556;37.816;2023-02-28T16:36:17;98574.75;;;-2.21;94.56
62655;BME280;48717;55.556;37.816;2023-02-28T16:39:11;98522.44;;;-2.43;95.00
62655;BME280;48717;55.556;37.816;2023-02-28T16:41:47;98564.63;;;-2.13;94.70
62655;BME280;48717;55.556;37.816;2023-02-28T16:44:28;98575.84;;;-2.13;95.15
62655;BME280;48717;55.556;37.816;2023-02-28T16:47:10;98534.88;;;-2.29;94.26
62655;BME280;48717;55.556;37.816;2023-02-28T16:49:39;98530.56;;;-2.30;93.72